Portada
METAR-TAF:

METAR-TAF

Aeropuertos :

Fort-de-France, Martinica

Aeropuerto Internacional de Martinica Aimé Césaire

latitud: 14-36N, longitud: 061-00W, altitud: 5 m

Observación

El informe se hizo hace 24 minutos, a las 08:30 UTC
Viento 2 kt con dirección variable
Temperatura 25°C
Humedad 89%
Presión 1013 hPa
Visibilidad 10 km o más

METAR: TFFF 270830Z AUTO VRB02KT 9999 SCT040/// BKN048/// BKN078/// ///CB 25/23 Q1013 TEMPO 3000 SHRA

Hora: 04:54 (08:54 UTC)

Pronóstico

El informe se hizo hace 3 horas y 54 minutos, a las 05:00 UTC
Pronóstico válido del 27 a las 06 UTC al 28 a las 06 UTC
Viento 10 kt del este
Visibilidad 10 km o más
Nubes dispersas a una altura de 2300 ft
Cielo nuboso a una altura de 5000 ft
Temporalmente
del 27 a las 06 UTC al 27 a las 21 UTC
Visibilidad: 3000 m
Nubes dispersas a una altura de 1800 ft, Cumulus congestus.
chaparrones de lluvia

TAF: TFFF 270500Z 2706/2806 10010KT 9999 SCT023 BKN050 TEMPO 2706/2721 3000 SHRA SCT018TCU

Observaciones y pronósticos meteorológicos de más de 4000 aeropuertos (mensajes METAR y TAF).

Los puntos amarillos y rojos representan las estaciones disponibles.

Ponga el ratón en el punto deseado para ver el nombre de la estación.

Haga clic para ver las observaciones y los pronósticos meteorológicos.

Para cambiar el mapa : haga clic en los botones verdes con una cruz de color negro para hacer un zoom, en el botón verde con un guión para alejar o en las flechas verdes para mapas adyacentes.


METAR-TAF: